KGSP

Greenville Spartanburg International Airport

Greer, South Carolina, USA
METAR KGSP 232053Z 26004KT 10SM CLR 18/06 A3014 RMK AO2 SLP202 T01830061 56014
Observed Flight Rules
Oct-23 @ 20:53 UTC (15 minutes ago) Visual Flight Rules
Wind Visibility Clouds
260° at 4 knots 10 miles
  • Clear skies
Temperatures Readings
Current 18°C / 64°F
Dewpoint 6°C / 43°F
Humidity 46%
Altimeter 30.14" Hg
Pressure 1020.2 hPa
Elevation 287
METAR KGSP 232053Z 26004KT 10SM CLR 18/06 A3014 RMK AO2 SLP202 T01830061 56014
Observed Flight Rules
Oct-23 @ 20:53 UTC
(15 minutes ago)
VFR
Wind Visibility
260° at 4 knots 10 miles
Clouds
  • Clear skies
Temperature Dewpoint
18°C / 64°F 6°C / 43°F
Humidity Altimeter Pressure
46% 30.14" Hg 1020.2 hPa